Time;durP1;ratioP1;P1;durP2;ratioP2;P2;SDS_P1;SDS_P2;PMS_P1;PMS_P2;Temp;Humidity;BMP_temperature;BMP_pressure;BME280_temperature;BME280_humidity;BME280_pressure;Samples;Min_cycle;Max_cycle;Signal;HPM_P1;HPM_P2
2023/01/05 00:01:04;;;;;;;;;;;;;;;17.07;70.80;101844.59;7410808;19;1558;-66
2023/01/05 00:03:32;;;;;;;;;;;;;;;17.04;70.65;101842.13;7411348;19;1551;-66
2023/01/05 00:06:04;;;;;;;;;;;;;;;17.02;71.20;101843.19;7411016;19;1857;-66
2023/01/05 00:08:32;;;;;;;;;;;;;;;16.94;71.17;101843.66;7406597;19;1689;-66
2023/01/05 00:24:32;;;;;;;;;;;;;;;19.24;63.95;101815.78;7409797;19;1357;-69
2023/01/05 00:27:00;;;;;;;;;;;;;;;19.36;63.61;101812.19;7407921;19;1857;-68
2023/01/05 00:29:28;;;;;;;;;;;;;;;19.37;64.01;101813.88;7409368;19;1674;-68
2023/01/05 00:31:57;;;;;;;;;;;;;;;19.28;63.99;101809.22;7410307;19;1404;-68
2023/01/05 00:34:25;;;;;;;;;;;;;;;18.62;65.95;101812.09;7409812;19;1613;-69
2023/01/05 00:36:56;;;;;;;;;;;;;;;18.02;67.54;101807.28;7409506;19;1525;-69
2023/01/05 00:39:24;;;;;;;;;;;;;;;17.65;68.91;101807.06;7408942;19;1357;-69
2023/01/05 00:41:52;;;;;;;;;;;;;;;17.46;69.29;101820.75;7411464;19;935;-67
2023/01/05 00:44:21;;;;;;;;;;;;;;;17.35;69.51;101816.13;7408836;19;1752;-67
2023/01/05 00:46:49;;;;;;;;;;;;;;;17.25;70.03;101798.97;7407377;19;1844;-67
2023/01/05 00:49:17;;;;;;;;;;;;;;;17.22;70.25;101799.16;7408684;19;1539;-67
2023/01/05 00:51:46;;;;;;;;;;;;;;;17.14;70.01;101785.41;7407379;19;1622;-67
2023/01/05 00:54:17;;;;;;;;;;;;;;;17.08;70.13;101778.66;7409924;19;1626;-67
2023/01/05 00:56:45;;;;;;;;;;;;;;;17.06;70.25;101783.22;7410253;19;930;-67
2023/01/05 00:59:13;;;;;;;;;;;;;;;17.01;70.37;101786.22;7407705;19;1670;-67
2023/01/05 01:01:41;;;;;;;;;;;;;;;16.98;70.82;101788.22;7403111;19;1576;-67
2023/01/05 01:04:10;;;;;;;;;;;;;;;16.94;70.63;101776.00;7407954;19;1534;-67
2023/01/05 01:06:38;;;;;;;;;;;;;;;16.90;70.95;101778.00;7406316;19;1850;-67
2023/01/05 01:09:07;;;;;;;;;;;;;;;16.86;70.96;101776.50;7409177;19;1550;-67
2023/01/05 01:11:37;;;;;;;;;;;;;;;16.83;70.71;101752.63;7409941;19;1001;-67
2023/01/05 01:14:06;;;;;;;;;;;;;;;16.85;70.79;101754.25;7406973;19;1543;-66
2023/01/05 01:16:35;;;;;;;;;;;;;;;17.79;68.21;101741.94;7408359;19;1543;-66
2023/01/05 01:19:03;;;;;;;;;;;;;;;18.81;64.75;101722.38;7407839;19;1708;-66
2023/01/05 01:21:32;;;;;;;;;;;;;;;19.22;63.55;101738.13;7408888;19;1562;-66
2023/01/05 01:24:00;;;;;;;;;;;;;;;19.19;63.70;101738.31;7408559;19;1500;-67
2023/01/05 01:26:28;;;;;;;;;;;;;;;19.26;63.64;101728.03;7407805;19;1851;-67
2023/01/05 01:28:59;;;;;;;;;;;;;;;18.96;64.30;101721.28;7406203;19;1566;-66
2023/01/05 01:31:27;;;;;;;;;;;;;;;18.27;66.44;101729.69;7407241;19;1547;-66
2023/01/05 01:33:56;;;;;;;;;;;;;;;17.79;67.93;101718.69;7408378;19;1419;-67
2023/01/05 01:36:24;;;;;;;;;;;;;;;17.46;68.72;101736.03;7407623;19;1606;-66
2023/01/05 01:38:52;;;;;;;;;;;;;;;17.27;69.36;101724.88;7408225;19;1439;-67
2023/01/05 01:41:21;;;;;;;;;;;;;;;17.17;69.65;101715.72;7408648;19;993;-67
2023/01/05 01:43:50;;;;;;;;;;;;;;;17.10;70.14;101721.47;7405280;19;1573;-66
2023/01/05 01:46:22;;;;;;;;;;;;;;;17.04;69.99;101713.84;7406519;19;1862;-67
2023/01/05 01:48:52;;;;;;;;;;;;;;;16.99;70.24;101715.09;7408111;19;1526;-67
2023/01/05 01:51:24;;;;;;;;;;;;;;;16.98;70.41;101722.25;7407925;19;1617;-67
2023/01/05 01:53:54;;;;;;;;;;;;;;;16.96;70.33;101723.31;7407413;19;1515;-66
2023/01/05 01:56:24;;;;;;;;;;;;;;;16.89;70.38;101717.50;7409338;19;1015;-66
2023/01/05 01:58:53;;;;;;;;;;;;;;;16.88;70.43;101710.47;7405279;19;1693;-66
2023/01/05 02:01:23;;;;;;;;;;;;;;;16.82;70.55;101711.69;7403813;19;1403;-66
2023/01/05 02:03:52;;;;;;;;;;;;;;;16.84;70.86;101719.63;7405895;19;1543;-66
2023/01/05 02:06:20;;;;;;;;;;;;;;;17.71;68.07;101705.00;7402436;19;2556;-66
2023/01/05 02:08:49;;;;;;;;;;;;;;;18.80;64.74;101688.50;7404669;19;1593;-66
2023/01/05 02:11:28;;;;;;;;;;;;;;;19.14;63.67;101686.00;7404830;19;1005;-66
2023/01/05 02:14:03;;;;;;;;;;;;;;;19.19;63.67;101678.50;7400694;19;1760;-67
2023/01/05 02:16:37;;;;;;;;;;;;;;;19.22;64.38;101656.81;7403124;19;1693;-67
2023/01/05 02:19:18;;;;;;;;;;;;;;;19.29;64.23;101663.41;7403408;19;1547;-67
2023/01/05 02:21:53;;;;;;;;;;;;;;;19.20;64.26;101656.94;7404051;19;1515;-66
2023/01/05 02:24:40;;;;;;;;;;;;;;;18.59;66.31;101653.38;7403995;19;1531;-66
2023/01/05 02:27:20;;;;;;;;;;;;;;;18.02;69.12;101647.56;7401958;19;1857;-66
2023/01/05 02:30:03;;;;;;;;;;;;;;;17.63;70.39;101654.69;7404260;19;1728;-67
2023/01/05 02:32:37;;;;;;;;;;;;;;;17.41;70.95;101659.78;7404905;19;1665;-66
2023/01/05 02:35:11;;;;;;;;;;;;;;;17.36;71.12;101657.41;7403935;19;1634;-67
2023/01/05 02:37:43;;;;;;;;;;;;;;;17.34;71.32;101643.28;7404363;19;1646;-67
2023/01/05 02:40:14;;;;;;;;;;;;;;;17.30;71.33;101644.44;7404898;19;1617;-67
2023/01/05 02:42:44;;;;;;;;;;;;;;;17.29;71.30;101640.94;7401559;19;927;-66
2023/01/05 02:45:12;;;;;;;;;;;;;;;17.25;71.38;101638.56;7405076;19;929;-66
2023/01/05 02:47:44;;;;;;;;;;;;;;;17.19;71.53;101649.66;7402328;19;1849;-66
2023/01/05 02:50:16;;;;;;;;;;;;;;;17.21;71.81;101645.06;7403532;19;1662;-66
2023/01/05 02:52:47;;;;;;;;;;;;;;;17.19;71.88;101646.97;7403509;19;1650;-66
2023/01/05 02:55:18;;;;;;;;;;;;;;;17.13;72.14;101650.94;7404885;19;1555;-66
2023/01/05 02:57:50;;;;;;;;;;;;;;;17.06;72.14;101647.78;7401124;19;1869;-67
2023/01/05 03:03:08;;;;;;;;;;;;;;;17.11;72.19;101636.81;7436089;19;1301;-34
2023/01/05 03:05:38;;;;;;;;;;;;;;;17.10;72.22;101625.25;7438510;19;966;-34
2023/01/05 03:08:21;;;;;;;;;;;;;;;17.03;72.36;101623.97;7438013;19;1993;-34
2023/01/05 03:13:42;;;;;;;;;;;;;;;16.96;72.25;101603.94;7436443;19;2077;-34
2023/01/05 03:16:12;;;;;;;;;;;;;;;16.98;72.28;101599.34;7437937;19;1549;-34
2023/01/05 03:21:24;;;;;;;;;;;;;;;16.97;72.47;101597.66;7432870;19;1907;-34
2023/01/05 03:37:27;;;;;;;;;;;;;;;16.92;72.35;101561.50;7436999;19;1426;-34
2023/01/05 03:39:56;;;;;;;;;;;;;;;16.88;72.68;101558.19;7436846;19;1839;-34
2023/01/05 03:42:24;;;;;;;;;;;;;;;16.94;72.29;101568.47;7435098;19;1849;-34
2023/01/05 03:44:52;;;;;;;;;;;;;;;16.93;72.70;101574.78;7436550;19;1721;-34
2023/01/05 03:47:21;;;;;;;;;;;;;;;16.91;72.78;101571.34;7435777;19;1963;-34
2023/01/05 03:49:52;;;;;;;;;;;;;;;16.83;72.77;101563.84;7436771;19;1830;-34
2023/01/05 03:52:20;;;;;;;;;;;;;;;16.82;72.61;101561.25;7436443;19;1587;-34
2023/01/05 03:54:49;;;;;;;;;;;;;;;16.85;72.40;101564.59;7435258;19;1623;-34
2023/01/05 03:57:17;;;;;;;;;;;;;;;16.86;72.34;101536.06;7437106;19;1131;-33
2023/01/05 03:59:45;;;;;;;;;;;;;;;16.87;72.77;101553.78;7435654;19;1647;-34
2023/01/05 04:02:13;;;;;;;;;;;;;;;16.81;72.46;101544.38;7434054;19;1851;-34
2023/01/05 04:04:41;;;;;;;;;;;;;;;16.79;72.89;101545.41;7436189;19;1603;-34
2023/01/05 04:07:12;;;;;;;;;;;;;;;16.83;72.67;101547.81;7435109;19;1838;-34
2023/01/05 04:09:40;;;;;;;;;;;;;;;16.86;72.71;101533.38;7435503;19;1927;-34
2023/01/05 04:12:09;;;;;;;;;;;;;;;16.84;72.80;101548.66;7434597;19;1064;-34
2023/01/05 04:14:37;;;;;;;;;;;;;;;16.81;72.47;101538.13;7405162;19;2059;-34
2023/01/05 04:17:05;;;;;;;;;;;;;;;16.76;72.43;101540.28;7406577;19;1681;-34
2023/01/05 04:19:33;;;;;;;;;;;;;;;16.79;72.93;101556.97;7406574;19;1504;-34
2023/01/05 04:22:02;;;;;;;;;;;;;;;16.84;72.65;101537.97;7405379;19;2319;-34
2023/01/05 04:24:32;;;;;;;;;;;;;;;16.79;72.28;101538.25;7405396;19;1917;-34
2023/01/05 04:27:01;;;;;;;;;;;;;;;16.78;72.71;101523.19;7406440;19;958;-34
2023/01/05 04:29:29;;;;;;;;;;;;;;;16.69;72.96;101516.66;7405591;19;1730;-34
2023/01/05 04:31:57;;;;;;;;;;;;;;;16.74;72.78;101520.81;7406115;19;1649;-34
2023/01/05 04:34:25;;;;;;;;;;;;;;;16.79;72.86;101514.22;7405315;19;1753;-34
2023/01/05 04:36:54;;;;;;;;;;;;;;;16.80;72.65;101509.72;7405102;19;1787;-34
2023/01/05 04:39:22;;;;;;;;;;;;;;;16.78;72.73;101517.84;7405373;19;1774;-34
2023/01/05 04:41:53;;;;;;;;;;;;;;;16.74;72.53;101510.13;7406516;19;1849;-34
2023/01/05 04:44:21;;;;;;;;;;;;;;;16.70;72.96;101518.34;7404494;19;2573;-34
2023/01/05 04:46:49;;;;;;;;;;;;;;;16.74;72.66;101512.81;7405771;19;2004;-34
2023/01/05 04:49:17;;;;;;;;;;;;;;;16.77;72.77;101515.25;7404332;19;1899;-34
2023/01/05 04:51:46;;;;;;;;;;;;;;;16.74;72.45;101491.44;7402521;19;1834;-34
2023/01/05 04:54:14;;;;;;;;;;;;;;;16.69;72.66;101502.41;7406138;19;1920;-34
2023/01/05 04:56:42;;;;;;;;;;;;;;;16.67;72.83;101504.34;7406283;19;1047;-34
2023/01/05 04:59:13;;;;;;;;;;;;;;;16.74;72.37;101510.13;7404438;19;1979;-34
2023/01/05 05:01:41;;;;;;;;;;;;;;;16.74;72.85;101491.44;7403184;19;1865;-34
2023/01/05 05:04:09;;;;;;;;;;;;;;;16.70;72.62;101477.44;7402060;19;1843;-34
2023/01/05 05:06:37;;;;;;;;;;;;;;;16.69;72.63;101484.59;7404144;19;1824;-34
2023/01/05 05:09:06;;;;;;;;;;;;;;;16.73;72.65;101492.38;7404135;19;1533;-34
2023/01/05 05:11:34;;;;;;;;;;;;;;;16.78;72.87;101480.44;7405553;19;955;-34
2023/01/05 05:14:02;;;;;;;;;;;;;;;18.02;68.95;101478.09;7403573;19;1772;-34
2023/01/05 05:16:33;;;;;;;;;;;;;;;18.71;66.72;101474.81;7400792;19;1708;-35
2023/01/05 05:19:01;;;;;;;;;;;;;;;18.83;66.92;101465.88;7403840;19;1680;-39
2023/01/05 05:21:30;;;;;;;;;;;;;;;19.07;66.37;101455.91;7333970;19;12732;-39
2023/01/05 05:23:58;;;;;;;;;;;;;;;19.20;65.82;101449.59;7402036;19;1415;-34
2023/01/05 05:26:26;;;;;;;;;;;;;;;19.27;65.78;101448.16;7403127;19;1552;-36
2023/01/05 05:28:54;;;;;;;;;;;;;;;19.42;65.44;101444.25;7401224;19;1720;-36
2023/01/05 05:31:23;;;;;;;;;;;;;;;19.53;65.44;101434.50;7400639;19;1528;-35
2023/01/05 05:33:54;;;;;;;;;;;;;;;19.46;65.57;101443.03;7403417;19;1671;-35
2023/01/05 05:36:22;;;;;;;;;;;;;;;19.22;66.16;101447.69;7403403;19;1638;-35
2023/01/05 05:38:50;;;;;;;;;;;;;;;19.18;66.09;101440.81;7402727;19;1382;-35
2023/01/05 05:41:19;;;;;;;;;;;;;;;19.02;65.87;101435.81;7403034;19;1427;-35
2023/01/05 05:43:47;;;;;;;;;;;;;;;18.65;67.55;101458.22;7400161;19;1741;-35
2023/01/05 05:46:24;;;;;;;;;;;;;;;18.06;68.58;101442.13;7395704;19;2015;-36
2023/01/05 05:48:55;;;;;;;;;;;;;;;17.65;69.35;101454.00;7398829;19;1834;-35
2023/01/05 05:51:23;;;;;;;;;;;;;;;17.43;69.88;101418.06;7401833;19;1718;-35
2023/01/05 05:53:52;;;;;;;;;;;;;;;17.34;70.40;101436.59;7402243;19;1826;-36
2023/01/05 05:56:21;;;;;;;;;;;;;;;17.25;70.72;101427.41;7404200;19;1051;-35
2023/01/05 05:58:49;;;;;;;;;;;;;;;17.19;70.63;101422.47;7401466;19;1882;-36
2023/01/05 06:01:17;;;;;;;;;;;;;;;17.10;70.47;101411.47;7401249;19;1498;-35
2023/01/05 06:03:45;;;;;;;;;;;;;;;17.06;70.84;101411.78;7401305;19;1838;-35
2023/01/05 06:06:21;;;;;;;;;;;;;;;17.04;70.71;101405.69;7402492;19;1705;-36
2023/01/05 06:08:50;;;;;;;;;;;;;;;16.95;70.74;101409.88;7400374;19;1741;-36
2023/01/05 06:11:18;;;;;;;;;;;;;;;16.92;70.98;101410.06;7402021;19;1785;-36
2023/01/05 06:13:47;;;;;;;;;;;;;;;16.88;71.28;101389.88;7399961;19;1610;-36
2023/01/05 06:16:15;;;;;;;;;;;;;;;17.82;68.33;101381.38;7402340;19;1762;-34
2023/01/05 06:18:44;;;;;;;;;;;;;;;18.87;65.52;101378.91;7401501;19;1645;-35
2023/01/05 06:21:12;;;;;;;;;;;;;;;19.31;63.90;101385.25;7395616;19;1897;-36
2023/01/05 06:23:43;;;;;;;;;;;;;;;19.24;64.37;101371.50;7397435;19;2361;-38
2023/01/05 06:26:11;;;;;;;;;;;;;;;19.47;64.45;101368.78;7402318;19;1043;-36
2023/01/05 06:28:39;;;;;;;;;;;;;;;19.64;63.96;101372.78;7401422;19;1500;-37
2023/01/05 06:31:07;;;;;;;;;;;;;;;19.65;64.35;101361.91;7399566;19;1835;-38
2023/01/05 06:33:36;;;;;;;;;;;;;;;19.66;64.18;101358.28;7396980;19;1560;-36
2023/01/05 06:36:04;;;;;;;;;;;;;;;19.66;64.32;101373.53;7399724;19;1464;-35
2023/01/05 06:38:32;;;;;;;;;;;;;;;19.53;64.72;101391.59;7399776;19;1467;-38
2023/01/05 06:41:03;;;;;;;;;;;;;;;19.49;65.09;101388.28;7398897;19;1419;-38
2023/01/05 06:43:31;;;;;;;;;;;;;;;19.10;66.16;101371.75;7398316;19;1865;-38
2023/01/05 06:45:59;;;;;;;;;;;;;;;18.66;67.47;101371.53;7400019;19;1524;-37
2023/01/05 06:48:28;;;;;;;;;;;;;;;18.35;68.63;101362.31;7397369;19;1820;-37
2023/01/05 06:50:56;;;;;;;;;;;;;;;18.15;69.23;101352.28;7400472;19;1592;-37
2023/01/05 06:53:24;;;;;;;;;;;;;;;18.07;70.29;101363.53;7400866;19;1833;-36
2023/01/05 06:55:52;;;;;;;;;;;;;;;17.85;69.79;101361.63;7397872;19;1669;-39
2023/01/05 06:58:23;;;;;;;;;;;;;;;17.56;70.05;101353.00;7397886;19;1794;-39
2023/01/05 07:00:51;;;;;;;;;;;;;;;17.56;70.09;101347.66;7396106;19;1437;-37
2023/01/05 07:03:22;;;;;;;;;;;;;;;17.41;66.18;101366.53;7399758;19;1845;-35
2023/01/05 07:05:50;;;;;;;;;;;;;;;17.05;68.20;101337.91;7398874;19;2036;-35
2023/01/05 07:08:18;;;;;;;;;;;;;;;17.21;69.25;101359.06;7397600;19;1487;-35
2023/01/05 07:10:47;;;;;;;;;;;;;;;17.23;69.54;101355.34;7401754;19;1965;-35
2023/01/05 07:13:15;;;;;;;;;;;;;;;17.22;69.12;101344.75;7397953;19;1843;-35
2023/01/05 07:15:46;;;;;;;;;;;;;;;17.93;67.19;101350.34;7400862;19;1685;-36
2023/01/05 07:18:14;;;;;;;;;;;;;;;18.94;64.17;101334.59;7401046;19;1828;-35
2023/01/05 07:20:42;;;;;;;;;;;;;;;19.51;62.96;101334.53;7402112;19;1038;-35
2023/01/05 07:23:10;;;;;;;;;;;;;;;19.58;62.54;101338.41;7400527;19;1890;-35
2023/01/05 07:25:38;;;;;;;;;;;;;;;19.89;61.56;101314.44;7401237;19;2057;-35
2023/01/05 07:28:07;;;;;;;;;;;;;;;19.86;61.90;101335.19;7397528;19;1551;-35
2023/01/05 07:30:35;;;;;;;;;;;;;;;19.95;62.05;101346.97;7400746;19;1672;-35
2023/01/05 07:33:06;;;;;;;;;;;;;;;19.98;61.83;101335.16;7402070;19;1025;-35
2023/01/05 07:35:34;;;;;;;;;;;;;;;19.80;62.63;101324.97;7401275;19;1600;-35
2023/01/05 07:38:02;;;;;;;;;;;;;;;19.73;62.44;101329.13;7401159;19;1839;-35
2023/01/05 07:40:30;;;;;;;;;;;;;;;19.45;63.09;101317.94;7400399;19;1740;-35
2023/01/05 07:42:59;;;;;;;;;;;;;;;19.45;63.39;101304.53;7396101;19;1851;-35
2023/01/05 07:45:27;;;;;;;;;;;;;;;19.03;64.31;101311.53;7400444;19;1036;-35
2023/01/05 07:47:55;;;;;;;;;;;;;;;18.62;65.54;101312.94;7402518;19;1836;-35
2023/01/05 07:50:26;;;;;;;;;;;;;;;18.31;66.35;101315.31;7407480;19;1729;-35
2023/01/05 07:52:54;;;;;;;;;;;;;;;18.13;66.86;101316.75;7407186;19;2069;-35
2023/01/05 07:55:22;;;;;;;;;;;;;;;18.05;67.16;101323.50;7408233;19;1595;-35
2023/01/05 07:57:51;;;;;;;;;;;;;;;17.95;67.57;101302.91;7407702;19;1886;-35
2023/01/05 08:00:19;;;;;;;;;;;;;;;17.87;67.34;101303.50;7408315;19;1018;-35
2023/01/05 08:02:47;;;;;;;;;;;;;;;17.84;68.02;101290.34;7404640;19;1858;-35
2023/01/05 08:05:16;;;;;;;;;;;;;;;17.78;68.08;101288.94;7406677;19;2063;-36
2023/01/05 08:07:46;;;;;;;;;;;;;;;17.79;68.08;101295.16;7406054;19;1956;-35
2023/01/05 08:10:30;;;;;;;;;;;;;;;17.73;67.79;101295.63;7407477;19;1496;-35
2023/01/05 08:15:43;;;;;;;;;;;;;;;18.10;66.87;101293.72;7407448;19;1689;-36
2023/01/05 08:18:11;;;;;;;;;;;;;;;18.85;64.53;101273.66;7405566;19;1468;-35
2023/01/05 08:20:40;;;;;;;;;;;;;;;19.56;62.68;101276.00;7407925;19;1019;-35
2023/01/05 08:23:11;;;;;;;;;;;;;;;19.86;61.60;101276.13;7405913;19;1845;-35
2023/01/05 08:25:39;;;;;;;;;;;;;;;20.11;61.05;101274.06;7407076;19;1815;-35
2023/01/05 08:28:07;;;;;;;;;;;;;;;20.05;61.26;101262.03;7403105;19;2088;-35
2023/01/05 08:30:35;;;;;;;;;;;;;;;20.13;61.19;101258.66;7406332;19;1919;-35
2023/01/05 08:33:04;;;;;;;;;;;;;;;20.18;60.99;101259.13;7407592;19;967;-35
2023/01/05 08:35:32;;;;;;;;;;;;;;;20.17;61.15;101248.53;7407049;19;1035;-35
2023/01/05 08:38:00;;;;;;;;;;;;;;;20.19;61.30;101246.56;7406447;19;1840;-34
2023/01/05 08:40:31;;;;;;;;;;;;;;;20.05;61.53;101264.72;7406219;19;2058;-35
2023/01/05 08:42:59;;;;;;;;;;;;;;;19.70;62.50;101248.03;7401884;19;1962;-35
2023/01/05 08:45:28;;;;;;;;;;;;;;;19.24;63.59;101241.94;7406286;19;1039;-35
2023/01/05 08:47:56;;;;;;;;;;;;;;;18.83;64.94;101238.94;7406439;19;1056;-35
2023/01/05 08:50:25;;;;;;;;;;;;;;;18.53;65.61;101244.88;7405891;19;1792;-35
2023/01/05 08:52:53;;;;;;;;;;;;;;;18.34;66.02;101247.28;7405508;19;1776;-35
2023/01/05 08:55:21;;;;;;;;;;;;;;;18.20;66.34;101251.88;7405470;19;1848;-34
2023/01/05 08:57:52;;;;;;;;;;;;;;;18.07;66.58;101249.31;7406486;19;1815;-36
2023/01/05 09:00:21;;;;;;;;;;;;;;;18.01;67.09;101244.44;7406096;19;1013;-35
2023/01/05 09:02:49;;;;;;;;;;;;;;;17.91;67.10;101242.59;7403420;19;1851;-35
2023/01/05 09:05:17;;;;;;;;;;;;;;;17.84;67.33;101239.50;7403471;19;1582;-35
2023/01/05 09:07:46;;;;;;;;;;;;;;;17.77;67.30;101233.75;7403434;19;1603;-35
2023/01/05 09:10:14;;;;;;;;;;;;;;;17.74;67.60;101233.97;7405279;19;1721;-35
2023/01/05 09:12:43;;;;;;;;;;;;;;;17.68;67.51;101218.38;7406410;19;1030;-34
2023/01/05 09:15:14;;;;;;;;;;;;;;;17.78;67.67;101221.22;7405488;19;1020;-35
2023/01/05 09:17:42;;;;;;;;;;;;;;;18.75;64.86;101213.72;7404449;19;1881;-35
2023/01/05 09:20:11;;;;;;;;;;;;;;;19.44;62.97;101183.97;7404905;19;1583;-35
2023/01/05 09:22:39;;;;;;;;;;;;;;;19.83;61.56;101179.75;7404872;19;1853;-35
2023/01/05 09:25:07;;;;;;;;;;;;;;;19.95;61.41;101177.03;7403524;19;1316;-35
2023/01/05 09:27:36;;;;;;;;;;;;;;;20.20;60.61;101173.94;7405197;19;955;-35
2023/01/05 09:30:05;;;;;;;;;;;;;;;20.12;61.20;101171.06;7404907;19;1849;-35
2023/01/05 09:32:35;;;;;;;;;;;;;;;20.03;61.25;101180.78;7403543;19;1815;-34
2023/01/05 09:35:06;;;;;;;;;;;;;;;19.57;62.64;101173.06;7404815;19;1789;-34
2023/01/05 09:37:35;;;;;;;;;;;;;;;18.96;64.10;101166.47;7404358;19;1657;-35
2023/01/05 09:40:03;;;;;;;;;;;;;;;18.58;65.46;101159.69;7403831;19;1748;-34
2023/01/05 09:42:35;;;;;;;;;;;;;;;18.31;66.10;101143.13;7403585;19;1691;-35
2023/01/05 09:45:06;;;;;;;;;;;;;;;18.17;66.33;101149.56;7402747;19;1838;-34
2023/01/05 09:47:38;;;;;;;;;;;;;;;18.02;66.66;101149.78;7403278;19;1889;-35
2023/01/05 09:50:13;;;;;;;;;;;;;;;17.92;66.70;101145.28;7403233;19;1961;-35
2023/01/05 09:52:41;;;;;;;;;;;;;;;17.83;67.20;101136.13;7404085;19;1782;-35
2023/01/05 09:55:14;;;;;;;;;;;;;;;17.74;67.24;101124.28;7403537;19;1563;-35
2023/01/05 09:57:42;;;;;;;;;;;;;;;17.67;67.29;101112.38;7404432;19;991;-35
2023/01/05 10:00:17;;;;;;;;;;;;;;;17.62;67.52;101106.53;7404385;19;996;-35
2023/01/05 10:02:48;;;;;;;;;;;;;;;17.59;67.53;101093.41;7401285;19;1946;-35
2023/01/05 10:05:19;;;;;;;;;;;;;;;17.98;66.60;101092.13;7403224;19;1761;-35
2023/01/05 10:07:51;;;;;;;;;;;;;;;18.77;63.89;101084.00;7402675;19;2034;-35
2023/01/05 10:10:25;;;;;;;;;;;;;;;19.60;61.61;101060.97;7401661;19;1930;-35
2023/01/05 10:13:05;;;;;;;;;;;;;;;19.94;60.76;101049.19;7402757;19;1627;-35
2023/01/05 10:15:40;;;;;;;;;;;;;;;20.17;60.57;101057.88;7403205;19;1836;-35
2023/01/05 10:18:12;;;;;;;;;;;;;;;20.35;60.50;101039.28;7402430;19;1867;-35
2023/01/05 10:20:52;;;;;;;;;;;;;;;20.48;60.26;101039.03;7403409;19;1107;-34
2023/01/05 10:23:33;;;;;;;;;;;;;;;19.97;61.83;101036.31;7403072;19;1873;-34
2023/01/05 10:26:06;;;;;;;;;;;;;;;19.32;63.45;101029.44;7401803;19;1095;-34
2023/01/05 10:28:40;;;;;;;;;;;;;;;18.84;65.23;101025.44;7399536;19;1764;-35
2023/01/05 10:31:14;;;;;;;;;;;;;;;18.56;66.23;101025.03;7397961;19;1631;-34
2023/01/05 10:33:49;;;;;;;;;;;;;;;18.36;66.65;101032.00;7402971;19;1690;-35
2023/01/05 10:36:29;;;;;;;;;;;;;;;18.30;66.70;101011.06;7399181;19;1410;-35
2023/01/05 10:39:03;;;;;;;;;;;;;;;18.21;67.29;101025.22;7400535;19;1727;-36
2023/01/05 10:41:35;;;;;;;;;;;;;;;18.15;67.40;100998.97;7400742;19;1253;-35
2023/01/05 10:44:23;;;;;;;;;;;;;;;18.05;67.28;100993.50;7396419;19;1951;-35
2023/01/05 10:46:51;;;;;;;;;;;;;;;17.89;67.84;100986.69;7399076;19;1699;-35
2023/01/05 10:49:21;;;;;;;;;;;;;;;17.85;68.12;100987.06;7397175;19;1507;-35
2023/01/05 10:51:52;;;;;;;;;;;;;;;17.85;67.65;100985.25;7398372;19;1840;-35
2023/01/05 10:54:27;;;;;;;;;;;;;;;17.84;68.02;100966.63;7398615;19;1783;-35
2023/01/05 10:56:55;;;;;;;;;;;;;;;17.82;67.89;100973.91;7401809;19;1082;-35
2023/01/05 10:59:24;;;;;;;;;;;;;;;17.72;67.88;100963.06;7400883;19;1960;-35
2023/01/05 11:01:52;;;;;;;;;;;;;;;17.67;67.76;100978.66;7399974;19;1908;-35
2023/01/05 11:04:22;;;;;;;;;;;;;;;17.63;67.70;100963.81;7400020;19;1853;-35
2023/01/05 11:06:53;;;;;;;;;;;;;;;17.60;68.28;100980.09;7400084;19;1832;-35
2023/01/05 11:09:25;;;;;;;;;;;;;;;17.56;68.02;100973.28;7400314;19;1787;-35
2023/01/05 11:11:56;;;;;;;;;;;;;;;17.54;67.83;100969.88;7402768;19;964;-35
2023/01/05 11:14:25;;;;;;;;;;;;;;;17.50;68.44;100964.78;7400604;19;1950;-35
2023/01/05 11:16:55;;;;;;;;;;;;;;;17.49;68.03;100964.91;7400455;19;1898;-35
2023/01/05 11:19:26;;;;;;;;;;;;;;;17.49;68.07;100952.38;7400376;19;1759;-35
2023/01/05 11:21:57;;;;;;;;;;;;;;;17.44;68.36;100954.56;7400398;19;1757;-35
2023/01/05 11:24:29;;;;;;;;;;;;;;;17.57;67.65;100949.13;7404151;19;1979;-35
2023/01/05 11:26:58;;;;;;;;;;;;;;;18.47;65.82;100932.06;7407665;19;1114;-35
2023/01/05 11:29:27;;;;;;;;;;;;;;;19.35;63.04;100930.81;7407191;19;1815;-35
2023/01/05 11:31:57;;;;;;;;;;;;;;;19.85;61.51;100941.63;7407692;19;1971;-35
2023/01/05 11:34:30;;;;;;;;;;;;;;;19.81;61.45;100942.06;7406728;19;1582;-35
2023/01/05 11:37:03;;;;;;;;;;;;;;;20.05;60.87;100961.34;7407227;19;1582;-35
2023/01/05 11:39:33;;;;;;;;;;;;;;;19.93;61.52;100969.63;7408783;19;1834;-35
2023/01/05 11:42:21;;;;;;;;;;;;;;;19.76;61.72;100977.34;7409148;19;1022;-35
2023/01/05 11:44:52;;;;;;;;;;;;;;;19.19;63.52;100984.09;7405047;19;2189;-35
2023/01/05 11:47:23;;;;;;;;;;;;;;;18.73;64.73;100996.84;7407374;19;2028;-35
2023/01/05 11:49:52;;;;;;;;;;;;;;;18.37;65.60;100980.16;7408112;19;1669;-34
2023/01/05 11:52:30;;;;;;;;;;;;;;;18.14;66.01;100965.97;7407688;19;1666;-34
2023/01/05 11:54:58;;;;;;;;;;;;;;;17.95;66.71;100957.75;7407256;19;1572;-35
2023/01/05 11:57:27;;;;;;;;;;;;;;;17.80;66.96;100944.59;7407448;19;1047;-34
2023/01/05 11:59:57;;;;;;;;;;;;;;;17.77;66.85;100939.50;7407296;19;1774;-35
2023/01/05 12:02:41;;;;;;;;;;;;;;;17.67;67.24;100943.88;7404755;19;1828;-35
2023/01/05 12:05:19;;;;;;;;;;;;;;;17.63;67.57;100915.69;7404672;19;1917;-35
2023/01/05 12:07:54;;;;;;;;;;;;;;;17.62;67.47;100924.66;7406259;19;1756;-35
2023/01/05 12:10:31;;;;;;;;;;;;;;;17.57;67.42;100921.53;7406817;19;1732;-35
2023/01/05 12:13:04;;;;;;;;;;;;;;;17.53;67.58;100917.38;7403250;19;1927;-35
2023/01/05 12:15:47;;;;;;;;;;;;;;;17.51;67.97;100917.53;7407269;19;1901;-35
2023/01/05 12:18:22;;;;;;;;;;;;;;;17.44;67.74;100914.47;7407122;19;1593;-35
2023/01/05 12:20:58;;;;;;;;;;;;;;;17.41;67.69;100904.03;7406847;19;1930;-36
2023/01/05 12:23:46;;;;;;;;;;;;;;;17.44;67.70;100900.25;7406953;19;1429;-36
2023/01/05 12:26:22;;;;;;;;;;;;;;;18.32;65.38;100879.78;7406774;19;3476;-35
2023/01/05 12:29:00;;;;;;;;;;;;;;;19.18;63.07;100875.13;7403557;19;1622;-35
2023/01/05 12:31:37;;;;;;;;;;;;;;;19.93;61.17;100881.06;7404895;19;1661;-35
2023/01/05 12:34:15;;;;;;;;;;;;;;;20.02;60.91;100880.25;7404674;19;1856;-35
2023/01/05 12:36:47;;;;;;;;;;;;;;;20.17;60.37;100881.50;7405169;19;1601;-35
2023/01/05 12:39:29;;;;;;;;;;;;;;;20.16;60.57;100871.75;7404434;19;1819;-35
2023/01/05 12:42:09;;;;;;;;;;;;;;;19.97;60.77;100877.13;7405119;19;1023;-35
2023/01/05 12:44:53;;;;;;;;;;;;;;;19.45;62.75;100879.91;7404110;19;1861;-34
2023/01/05 12:47:39;;;;;;;;;;;;;;;18.83;64.11;100857.63;7404929;19;1811;-35
2023/01/05 12:50:21;;;;;;;;;;;;;;;18.49;65.06;100849.75;7405326;19;1970;-35
2023/01/05 12:52:51;;;;;;;;;;;;;;;18.26;65.57;100851.69;7405156;19;1725;-34
2023/01/05 12:55:22;;;;;;;;;;;;;;;18.04;65.86;100844.59;7405722;19;1899;-35
2023/01/05 12:57:56;;;;;;;;;;;;;;;17.89;66.50;100828.84;7405600;19;1835;-35
2023/01/05 13:00:25;;;;;;;;;;;;;;;17.83;66.96;100825.81;7406692;19;954;-35
2023/01/05 13:02:55;;;;;;;;;;;;;;;17.76;66.94;100849.50;7404033;19;1044;-35
2023/01/05 13:05:27;;;;;;;;;;;;;;;17.67;67.28;100844.94;7404312;19;2042;-35
2023/01/05 13:07:57;;;;;;;;;;;;;;;17.64;67.20;100853.19;7404530;19;2017;-35
2023/01/05 13:10:29;;;;;;;;;;;;;;;17.57;67.47;100830.63;7405243;19;2044;-35
2023/01/05 13:13:02;;;;;;;;;;;;;;;17.54;67.66;100839.72;7405880;19;1845;-35
2023/01/05 13:15:34;;;;;;;;;;;;;;;17.53;67.42;100845.19;7406002;19;1791;-35
2023/01/05 13:18:05;;;;;;;;;;;;;;;17.51;67.46;100845.31;7405858;19;1038;-35
2023/01/05 13:20:37;;;;;;;;;;;;;;;17.46;67.46;100829.63;7406037;19;951;-35
2023/01/05 13:23:08;;;;;;;;;;;;;;;17.42;67.73;100830.03;7405052;19;1629;-35
2023/01/05 13:25:40;;;;;;;;;;;;;;;18.03;66.31;100824.19;7403402;19;2060;-35
2023/01/05 13:28:18;;;;;;;;;;;;;;;18.98;63.76;100837.53;7400948;19;1985;-35
2023/01/05 13:30:52;;;;;;;;;;;;;;;19.75;61.52;100828.06;7403914;19;1936;-36
2023/01/05 13:33:33;;;;;;;;;;;;;;;19.94;60.88;100821.03;7405207;19;1952;-35
2023/01/05 13:36:07;;;;;;;;;;;;;;;20.18;60.23;100818.78;7405676;19;1029;-35
2023/01/05 13:38:57;;;;;;;;;;;;;;;20.04;60.75;100816.53;7405011;19;1020;-35
2023/01/05 13:41:35;;;;;;;;;;;;;;;19.83;61.22;100830.91;7405326;19;1033;-35
2023/01/05 13:44:26;;;;;;;;;;;;;;;19.37;62.52;100829.63;7402573;19;1870;-35